sensor_id;sensor_type;location;lat;lon;timestamp;temperature;humidity
63771;DHT22;60282;43.862;18.430;2023-08-06T00:00:47;20.80;99.90
63771;DHT22;60282;43.862;18.430;2023-08-06T00:03:13;20.80;99.90
63771;DHT22;60282;43.862;18.430;2023-08-06T00:05:41;21.00;99.90
63771;DHT22;60282;43.862;18.430;2023-08-06T00:08:08;19.30;99.90
63771;DHT22;60282;43.862;18.430;2023-08-06T00:10:34;21.10;99.90
63771;DHT22;60282;43.862;18.430;2023-08-06T00:12:59;21.30;99.90
63771;DHT22;60282;43.862;18.430;2023-08-06T00:15:25;21.40;99.90
63771;DHT22;60282;43.862;18.430;2023-08-06T00:17:51;23.80;99.90
63771;DHT22;60282;43.862;18.430;2023-08-06T00:20:17;21.30;99.90
63771;DHT22;60282;43.862;18.430;2023-08-06T00:22:43;21.10;99.90
63771;DHT22;60282;43.862;18.430;2023-08-06T00:25:09;21.20;99.90
63771;DHT22;60282;43.862;18.430;2023-08-06T00:27:37;20.90;99.90
63771;DHT22;60282;43.862;18.430;2023-08-06T00:30:04;20.50;99.90
63771;DHT22;60282;43.862;18.430;2023-08-06T00:32:30;20.70;99.90
63771;DHT22;60282;43.862;18.430;2023-08-06T00:34:55;20.10;99.90
63771;DHT22;60282;43.862;18.430;2023-08-06T00:37:22;19.70;99.90
63771;DHT22;60282;43.862;18.430;2023-08-06T00:39:47;19.40;99.90
63771;DHT22;60282;43.862;18.430;2023-08-06T00:42:13;19.50;99.90
63771;DHT22;60282;43.862;18.430;2023-08-06T00:44:39;19.70;99.90
63771;DHT22;60282;43.862;18.430;2023-08-06T00:47:07;20.20;99.90
63771;DHT22;60282;43.862;18.430;2023-08-06T00:49:34;20.30;99.90
63771;DHT22;60282;43.862;18.430;2023-08-06T00:52:00;20.60;99.90
63771;DHT22;60282;43.862;18.430;2023-08-06T00:54:27;20.80;99.90
63771;DHT22;60282;43.862;18.430;2023-08-06T00:56:53;20.60;99.90
63771;DHT22;60282;43.862;18.430;2023-08-06T00:59:19;20.50;99.90
63771;DHT22;60282;43.862;18.430;2023-08-06T01:01:45;20.50;99.90
63771;DHT22;60282;43.862;18.430;2023-08-06T01:04:12;20.70;99.90
63771;DHT22;60282;43.862;18.430;2023-08-06T01:06:45;20.50;99.90
63771;DHT22;60282;43.862;18.430;2023-08-06T01:17:32;20.80;99.90
63771;DHT22;60282;43.862;18.430;2023-08-06T01:19:59;20.30;99.90
63771;DHT22;60282;43.862;18.430;2023-08-06T01:22:25;20.90;99.90
63771;DHT22;60282;43.862;18.430;2023-08-06T01:24:51;21.00;99.90
63771;DHT22;60282;43.862;18.430;2023-08-06T01:28:11;21.20;99.90
63771;DHT22;60282;43.862;18.430;2023-08-06T01:30:30;21.30;99.90
63771;DHT22;60282;43.862;18.430;2023-08-06T01:33:04;21.20;99.90
63771;DHT22;60282;43.862;18.430;2023-08-06T01:35:30;21.20;99.90
63771;DHT22;60282;43.862;18.430;2023-08-06T01:37:59;21.30;99.90
63771;DHT22;60282;43.862;18.430;2023-08-06T01:40:26;21.30;99.90
63771;DHT22;60282;43.862;18.430;2023-08-06T01:42:53;21.50;99.90
63771;DHT22;60282;43.862;18.430;2023-08-06T01:45:19;21.40;99.90
63771;DHT22;60282;43.862;18.430;2023-08-06T01:47:45;21.10;99.90
63771;DHT22;60282;43.862;18.430;2023-08-06T01:50:11;20.60;99.90
63771;DHT22;60282;43.862;18.430;2023-08-06T01:52:36;20.80;99.90
63771;DHT22;60282;43.862;18.430;2023-08-06T01:55:03;20.90;99.90
63771;DHT22;60282;43.862;18.430;2023-08-06T01:57:33;21.00;99.90
63771;DHT22;60282;43.862;18.430;2023-08-06T01:59:59;21.10;99.90
63771;DHT22;60282;43.862;18.430;2023-08-06T02:02:28;21.20;99.90
63771;DHT22;60282;43.862;18.430;2023-08-06T02:04:59;21.50;99.90
63771;DHT22;60282;43.862;18.430;2023-08-06T02:07:25;21.00;99.90
63771;DHT22;60282;43.862;18.430;2023-08-06T02:09:51;21.00;99.90
63771;DHT22;60282;43.862;18.430;2023-08-06T02:12:19;20.70;99.90
63771;DHT22;60282;43.862;18.430;2023-08-06T02:15:04;20.80;99.90
63771;DHT22;60282;43.862;18.430;2023-08-06T02:17:36;20.90;99.90
63771;DHT22;60282;43.862;18.430;2023-08-06T02:20:02;20.50;99.90
63771;DHT22;60282;43.862;18.430;2023-08-06T02:22:28;21.30;99.90
63771;DHT22;60282;43.862;18.430;2023-08-06T02:24:54;21.10;99.90
63771;DHT22;60282;43.862;18.430;2023-08-06T02:29:45;20.70;99.90
63771;DHT22;60282;43.862;18.430;2023-08-06T02:32:11;20.70;99.90
63771;DHT22;60282;43.862;18.430;2023-08-06T02:34:37;20.70;99.90
63771;DHT22;60282;43.862;18.430;2023-08-06T02:37:03;21.20;99.90
63771;DHT22;60282;43.862;18.430;2023-08-06T02:39:29;20.70;99.90
63771;DHT22;60282;43.862;18.430;2023-08-06T02:41:54;20.60;99.90
63771;DHT22;60282;43.862;18.430;2023-08-06T02:44:20;20.70;99.90
63771;DHT22;60282;43.862;18.430;2023-08-06T02:46:46;20.60;99.90
63771;DHT22;60282;43.862;18.430;2023-08-06T02:49:12;20.80;99.90
63771;DHT22;60282;43.862;18.430;2023-08-06T02:51:37;20.80;99.90
63771;DHT22;60282;43.862;18.430;2023-08-06T02:54:03;20.90;99.90
63771;DHT22;60282;43.862;18.430;2023-08-06T02:56:29;20.90;99.90
63771;DHT22;60282;43.862;18.430;2023-08-06T02:58:55;20.90;99.90
63771;DHT22;60282;43.862;18.430;2023-08-06T03:01:20;20.90;99.90
63771;DHT22;60282;43.862;18.430;2023-08-06T03:03:48;20.90;99.90
63771;DHT22;60282;43.862;18.430;2023-08-06T03:06:14;20.90;99.90
63771;DHT22;60282;43.862;18.430;2023-08-06T03:08:40;20.80;99.90
63771;DHT22;60282;43.862;18.430;2023-08-06T03:11:06;20.80;99.90
63771;DHT22;60282;43.862;18.430;2023-08-06T03:13:31;20.90;99.90
63771;DHT22;60282;43.862;18.430;2023-08-06T03:15:58;20.70;99.90
63771;DHT22;60282;43.862;18.430;2023-08-06T03:18:25;20.70;99.90
63771;DHT22;60282;43.862;18.430;2023-08-06T03:20:52;20.70;99.90
63771;DHT22;60282;43.862;18.430;2023-08-06T03:23:18;20.70;99.90
63771;DHT22;60282;43.862;18.430;2023-08-06T03:25:44;20.70;99.90
63771;DHT22;60282;43.862;18.430;2023-08-06T03:28:10;20.80;99.90
63771;DHT22;60282;43.862;18.430;2023-08-06T03:30:36;18.30;99.90
63771;DHT22;60282;43.862;18.430;2023-08-06T03:33:02;20.80;99.90
63771;DHT22;60282;43.862;18.430;2023-08-06T03:35:28;20.70;99.90
63771;DHT22;60282;43.862;18.430;2023-08-06T03:37:54;20.50;99.90
63771;DHT22;60282;43.862;18.430;2023-08-06T03:40:19;20.50;99.90
63771;DHT22;60282;43.862;18.430;2023-08-06T03:42:45;20.60;99.90
63771;DHT22;60282;43.862;18.430;2023-08-06T03:45:11;20.70;99.90
63771;DHT22;60282;43.862;18.430;2023-08-06T03:47:37;20.40;99.90
63771;DHT22;60282;43.862;18.430;2023-08-06T03:50:03;20.40;99.90
63771;DHT22;60282;43.862;18.430;2023-08-06T03:52:28;20.40;99.90
63771;DHT22;60282;43.862;18.430;2023-08-06T03:54:54;20.30;99.90
63771;DHT22;60282;43.862;18.430;2023-08-06T03:57:20;20.40;99.90
63771;DHT22;60282;43.862;18.430;2023-08-06T03:59:46;20.40;99.90
63771;DHT22;60282;43.862;18.430;2023-08-06T04:02:11;20.40;99.90
63771;DHT22;60282;43.862;18.430;2023-08-06T04:04:37;20.50;99.90
63771;DHT22;60282;43.862;18.430;2023-08-06T04:07:03;20.60;99.90
63771;DHT22;60282;43.862;18.430;2023-08-06T04:09:29;20.60;99.90
63771;DHT22;60282;43.862;18.430;2023-08-06T04:11:55;20.60;99.90
63771;DHT22;60282;43.862;18.430;2023-08-06T04:14:21;20.60;99.90
63771;DHT22;60282;43.862;18.430;2023-08-06T04:16:47;20.60;99.90
63771;DHT22;60282;43.862;18.430;2023-08-06T04:19:13;20.60;99.90
63771;DHT22;60282;43.862;18.430;2023-08-06T04:21:38;20.60;99.90
63771;DHT22;60282;43.862;18.430;2023-08-06T04:24:04;20.60;99.90
63771;DHT22;60282;43.862;18.430;2023-08-06T04:26:30;20.60;99.90
63771;DHT22;60282;43.862;18.430;2023-08-06T04:28:55;20.60;99.90
63771;DHT22;60282;43.862;18.430;2023-08-06T04:31:22;20.60;99.90
63771;DHT22;60282;43.862;18.430;2023-08-06T04:33:48;20.60;99.90
63771;DHT22;60282;43.862;18.430;2023-08-06T04:36:14;20.60;99.90
63771;DHT22;60282;43.862;18.430;2023-08-06T04:38:40;20.60;99.90
63771;DHT22;60282;43.862;18.430;2023-08-06T04:41:10;20.60;99.90
63771;DHT22;60282;43.862;18.430;2023-08-06T04:43:36;20.60;99.90
63771;DHT22;60282;43.862;18.430;2023-08-06T04:46:02;20.60;99.90
63771;DHT22;60282;43.862;18.430;2023-08-06T04:48:28;20.60;99.90
63771;DHT22;60282;43.862;18.430;2023-08-06T04:50:54;20.70;99.90
63771;DHT22;60282;43.862;18.430;2023-08-06T04:53:20;20.60;99.90
63771;DHT22;60282;43.862;18.430;2023-08-06T04:55:46;20.50;99.90
63771;DHT22;60282;43.862;18.430;2023-08-06T04:58:12;20.40;99.90
63771;DHT22;60282;43.862;18.430;2023-08-06T05:00:38;20.50;99.90
63771;DHT22;60282;43.862;18.430;2023-08-06T05:03:05;20.60;99.90
63771;DHT22;60282;43.862;18.430;2023-08-06T05:05:31;20.70;99.90
63771;DHT22;60282;43.862;18.430;2023-08-06T05:07:57;20.70;99.90
63771;DHT22;60282;43.862;18.430;2023-08-06T05:10:25;20.80;99.90
63771;DHT22;60282;43.862;18.430;2023-08-06T05:12:51;20.90;99.90
63771;DHT22;60282;43.862;18.430;2023-08-06T05:15:17;20.90;99.90
63771;DHT22;60282;43.862;18.430;2023-08-06T05:17:43;20.80;99.90
63771;DHT22;60282;43.862;18.430;2023-08-06T05:20:09;20.90;99.90
63771;DHT22;60282;43.862;18.430;2023-08-06T05:22:35;21.00;99.90
63771;DHT22;60282;43.862;18.430;2023-08-06T05:25:01;20.90;99.90
63771;DHT22;60282;43.862;18.430;2023-08-06T05:27:27;21.10;99.90
63771;DHT22;60282;43.862;18.430;2023-08-06T05:29:56;21.20;99.90
63771;DHT22;60282;43.862;18.430;2023-08-06T05:32:22;21.20;99.90
63771;DHT22;60282;43.862;18.430;2023-08-06T05:34:48;21.20;99.90
63771;DHT22;60282;43.862;18.430;2023-08-06T05:37:14;20.60;99.90
63771;DHT22;60282;43.862;18.430;2023-08-06T05:39:39;20.70;99.90
63771;DHT22;60282;43.862;18.430;2023-08-06T05:42:05;20.90;99.90
63771;DHT22;60282;43.862;18.430;2023-08-06T05:44:32;21.00;99.90
63771;DHT22;60282;43.862;18.430;2023-08-06T05:46:57;21.20;99.90
63771;DHT22;60282;43.862;18.430;2023-08-06T05:49:23;21.10;99.90
63771;DHT22;60282;43.862;18.430;2023-08-06T05:51:49;21.30;99.90
63771;DHT22;60282;43.862;18.430;2023-08-06T05:54:15;21.30;99.90
63771;DHT22;60282;43.862;18.430;2023-08-06T05:56:41;21.40;99.90
63771;DHT22;60282;43.862;18.430;2023-08-06T05:59:06;21.30;99.90
63771;DHT22;60282;43.862;18.430;2023-08-06T06:01:32;21.40;99.90
63771;DHT22;60282;43.862;18.430;2023-08-06T06:03:58;21.50;99.90
63771;DHT22;60282;43.862;18.430;2023-08-06T06:06:24;21.60;99.90
63771;DHT22;60282;43.862;18.430;2023-08-06T06:08:49;21.60;99.90
63771;DHT22;60282;43.862;18.430;2023-08-06T06:11:15;21.70;99.90
63771;DHT22;60282;43.862;18.430;2023-08-06T06:13:41;21.80;99.90
63771;DHT22;60282;43.862;18.430;2023-08-06T06:16:07;21.90;99.90
63771;DHT22;60282;43.862;18.430;2023-08-06T06:18:33;22.00;99.90
63771;DHT22;60282;43.862;18.430;2023-08-06T06:20:59;22.10;99.90
63771;DHT22;60282;43.862;18.430;2023-08-06T06:23:24;22.20;99.90
63771;DHT22;60282;43.862;18.430;2023-08-06T06:25:50;22.30;99.90
63771;DHT22;60282;43.862;18.430;2023-08-06T06:28:18;22.40;99.90
63771;DHT22;60282;43.862;18.430;2023-08-06T06:30:47;22.50;99.90
63771;DHT22;60282;43.862;18.430;2023-08-06T06:33:13;22.50;99.90
63771;DHT22;60282;43.862;18.430;2023-08-06T06:35:39;22.70;99.90
63771;DHT22;60282;43.862;18.430;2023-08-06T06:38:05;22.70;99.90
63771;DHT22;60282;43.862;18.430;2023-08-06T06:40:30;22.70;99.90
63771;DHT22;60282;43.862;18.430;2023-08-06T06:42:56;22.50;99.90
63771;DHT22;60282;43.862;18.430;2023-08-06T06:45:22;22.60;99.90
63771;DHT22;60282;43.862;18.430;2023-08-06T06:47:48;22.40;99.90
63771;DHT22;60282;43.862;18.430;2023-08-06T06:50:14;22.30;99.90
63771;DHT22;60282;43.862;18.430;2023-08-06T06:52:39;22.20;99.90
63771;DHT22;60282;43.862;18.430;2023-08-06T06:55:05;22.10;99.90
63771;DHT22;60282;43.862;18.430;2023-08-06T06:57:31;22.20;99.90
63771;DHT22;60282;43.862;18.430;2023-08-06T06:59:57;22.20;99.90
63771;DHT22;60282;43.862;18.430;2023-08-06T07:02:23;22.20;99.90
63771;DHT22;60282;43.862;18.430;2023-08-06T07:04:49;22.10;99.90
63771;DHT22;60282;43.862;18.430;2023-08-06T07:07:15;22.20;99.90
63771;DHT22;60282;43.862;18.430;2023-08-06T07:09:41;22.40;99.90
63771;DHT22;60282;43.862;18.430;2023-08-06T07:12:07;22.50;99.90
63771;DHT22;60282;43.862;18.430;2023-08-06T07:14:33;22.40;99.90
63771;DHT22;60282;43.862;18.430;2023-08-06T07:16:59;22.40;99.90
63771;DHT22;60282;43.862;18.430;2023-08-06T07:19:25;22.50;99.90
63771;DHT22;60282;43.862;18.430;2023-08-06T07:21:50;22.60;99.90
63771;DHT22;60282;43.862;18.430;2023-08-06T07:24:17;22.60;99.90
63771;DHT22;60282;43.862;18.430;2023-08-06T07:26:42;22.70;99.90
63771;DHT22;60282;43.862;18.430;2023-08-06T07:29:08;22.80;99.90
63771;DHT22;60282;43.862;18.430;2023-08-06T07:31:34;23.00;99.90
63771;DHT22;60282;43.862;18.430;2023-08-06T07:34:00;23.20;99.90
63771;DHT22;60282;43.862;18.430;2023-08-06T07:36:28;22.90;99.90
63771;DHT22;60282;43.862;18.430;2023-08-06T07:38:54;23.20;99.90
63771;DHT22;60282;43.862;18.430;2023-08-06T07:41:25;23.30;99.90
63771;DHT22;60282;43.862;18.430;2023-08-06T07:43:51;23.10;99.90
63771;DHT22;60282;43.862;18.430;2023-08-06T07:46:16;23.20;99.90
63771;DHT22;60282;43.862;18.430;2023-08-06T07:48:43;23.10;99.90
63771;DHT22;60282;43.862;18.430;2023-08-06T07:51:08;23.00;99.90
63771;DHT22;60282;43.862;18.430;2023-08-06T07:53:34;23.00;99.90
63771;DHT22;60282;43.862;18.430;2023-08-06T07:56:00;20.10;99.90
63771;DHT22;60282;43.862;18.430;2023-08-06T07:58:27;23.20;99.90
63771;DHT22;60282;43.862;18.430;2023-08-06T08:00:55;21.70;99.90
63771;DHT22;60282;43.862;18.430;2023-08-06T08:03:21;22.80;99.90
63771;DHT22;60282;43.862;18.430;2023-08-06T08:05:47;22.80;99.90
63771;DHT22;60282;43.862;18.430;2023-08-06T08:08:12;22.70;99.90
63771;DHT22;60282;43.862;18.430;2023-08-06T08:10:38;22.70;99.90
63771;DHT22;60282;43.862;18.430;2023-08-06T08:13:05;23.00;99.90
63771;DHT22;60282;43.862;18.430;2023-08-06T08:15:32;22.60;99.90
63771;DHT22;60282;43.862;18.430;2023-08-06T08:17:58;22.60;99.90
63771;DHT22;60282;43.862;18.430;2023-08-06T08:20:24;22.70;99.90
63771;DHT22;60282;43.862;18.430;2023-08-06T08:22:50;23.10;99.90
63771;DHT22;60282;43.862;18.430;2023-08-06T08:25:16;23.40;99.90
63771;DHT22;60282;43.862;18.430;2023-08-06T08:27:42;23.60;99.90
63771;DHT22;60282;43.862;18.430;2023-08-06T08:30:08;24.10;99.90
63771;DHT22;60282;43.862;18.430;2023-08-06T08:32:34;24.20;99.90
63771;DHT22;60282;43.862;18.430;2023-08-06T08:34:59;24.60;99.90
63771;DHT22;60282;43.862;18.430;2023-08-06T08:37:25;24.50;99.90
63771;DHT22;60282;43.862;18.430;2023-08-06T08:39:51;24.80;99.90
63771;DHT22;60282;43.862;18.430;2023-08-06T08:42:18;25.10;99.90
63771;DHT22;60282;43.862;18.430;2023-08-06T08:44:45;25.20;99.90
63771;DHT22;60282;43.862;18.430;2023-08-06T08:47:11;25.00;99.90
63771;DHT22;60282;43.862;18.430;2023-08-06T08:49:37;25.10;99.90
63771;DHT22;60282;43.862;18.430;2023-08-06T08:52:05;25.00;99.90
63771;DHT22;60282;43.862;18.430;2023-08-06T08:54:38;24.70;99.90
63771;DHT22;60282;43.862;18.430;2023-08-06T08:57:04;24.80;99.90
63771;DHT22;60282;43.862;18.430;2023-08-06T08:59:30;22.50;99.90
63771;DHT22;60282;43.862;18.430;2023-08-06T09:01:56;24.60;99.90
63771;DHT22;60282;43.862;18.430;2023-08-06T09:04:23;24.50;99.90
63771;DHT22;60282;43.862;18.430;2023-08-06T09:06:54;24.20;99.90
63771;DHT22;60282;43.862;18.430;2023-08-06T09:09:31;24.20;99.90
63771;DHT22;60282;43.862;18.430;2023-08-06T09:12:01;24.10;99.90
63771;DHT22;60282;43.862;18.430;2023-08-06T09:14:30;24.20;99.90
63771;DHT22;60282;43.862;18.430;2023-08-06T09:16:56;24.20;99.90
63771;DHT22;60282;43.862;18.430;2023-08-06T09:19:23;24.20;99.40
63771;DHT22;60282;43.862;18.430;2023-08-06T09:21:51;24.30;99.60
63771;DHT22;60282;43.862;18.430;2023-08-06T09:24:17;24.40;98.00
63771;DHT22;60282;43.862;18.430;2023-08-06T09:26:46;24.40;98.40
63771;DHT22;60282;43.862;18.430;2023-08-06T09:29:12;24.70;98.40
63771;DHT22;60282;43.862;18.430;2023-08-06T09:31:46;24.80;98.60
63771;DHT22;60282;43.862;18.430;2023-08-06T09:34:19;24.90;98.00
63771;DHT22;60282;43.862;18.430;2023-08-06T09:36:50;25.00;97.50
63771;DHT22;60282;43.862;18.430;2023-08-06T09:39:18;25.00;97.90
63771;DHT22;60282;43.862;18.430;2023-08-06T09:41:45;24.90;97.10
63771;DHT22;60282;43.862;18.430;2023-08-06T09:44:21;24.70;97.60
63771;DHT22;60282;43.862;18.430;2023-08-06T09:46:53;24.70;97.90
63771;DHT22;60282;43.862;18.430;2023-08-06T09:49:21;24.70;97.80
63771;DHT22;60282;43.862;18.430;2023-08-06T09:51:47;24.70;97.70
63771;DHT22;60282;43.862;18.430;2023-08-06T09:56:44;25.00;95.90
63771;DHT22;60282;43.862;18.430;2023-08-06T09:59:10;25.10;95.70
63771;DHT22;60282;43.862;18.430;2023-08-06T10:01:39;25.10;95.00
63771;DHT22;60282;43.862;18.430;2023-08-06T10:04:06;25.00;95.00
63771;DHT22;60282;43.862;18.430;2023-08-06T10:06:37;24.70;95.20
63771;DHT22;60282;43.862;18.430;2023-08-06T10:09:06;24.60;95.50
63771;DHT22;60282;43.862;18.430;2023-08-06T10:11:33;24.40;96.30
63771;DHT22;60282;43.862;18.430;2023-08-06T10:16:47;23.80;97.40
63771;DHT22;60282;43.862;18.430;2023-08-06T10:19:14;23.40;98.20
63771;DHT22;60282;43.862;18.430;2023-08-06T10:21:41;23.20;98.80
63771;DHT22;60282;43.862;18.430;2023-08-06T10:24:08;23.00;99.40
63771;DHT22;60282;43.862;18.430;2023-08-06T10:26:37;22.90;99.90
63771;DHT22;60282;43.862;18.430;2023-08-06T10:29:35;22.90;99.90
63771;DHT22;60282;43.862;18.430;2023-08-06T10:32:02;22.70;99.90
63771;DHT22;60282;43.862;18.430;2023-08-06T10:35:02;22.70;99.90
63771;DHT22;60282;43.862;18.430;2023-08-06T10:37:36;22.20;99.90
63771;DHT22;60282;43.862;18.430;2023-08-06T10:40:03;22.00;99.90
63771;DHT22;60282;43.862;18.430;2023-08-06T10:42:30;22.30;99.90
63771;DHT22;60282;43.862;18.430;2023-08-06T10:47:44;22.80;99.90
63771;DHT22;60282;43.862;18.430;2023-08-06T10:50:15;23.30;99.90
63771;DHT22;60282;43.862;18.430;2023-08-06T10:52:47;23.50;99.90
63771;DHT22;60282;43.862;18.430;2023-08-06T10:55:28;21.50;99.90
63771;DHT22;60282;43.862;18.430;2023-08-06T10:57:55;23.50;99.90
63771;DHT22;60282;43.862;18.430;2023-08-06T11:00:29;23.30;99.90
63771;DHT22;60282;43.862;18.430;2023-08-06T11:02:54;23.60;99.90
63771;DHT22;60282;43.862;18.430;2023-08-06T11:05:25;23.30;99.90
63771;DHT22;60282;43.862;18.430;2023-08-06T11:07:51;23.40;99.90
63771;DHT22;60282;43.862;18.430;2023-08-06T11:15:28;23.40;99.90
63771;DHT22;60282;43.862;18.430;2023-08-06T11:18:03;23.40;99.90
63771;DHT22;60282;43.862;18.430;2023-08-06T11:20:29;23.50;99.90
63771;DHT22;60282;43.862;18.430;2023-08-06T11:22:55;23.70;99.90
63771;DHT22;60282;43.862;18.430;2023-08-06T11:25:21;23.80;99.90
63771;DHT22;60282;43.862;18.430;2023-08-06T11:27:47;24.10;99.90
63771;DHT22;60282;43.862;18.430;2023-08-06T11:30:14;24.50;99.90
63771;DHT22;60282;43.862;18.430;2023-08-06T11:32:47;24.90;99.90
63771;DHT22;60282;43.862;18.430;2023-08-06T11:35:14;25.90;99.90
63771;DHT22;60282;43.862;18.430;2023-08-06T11:37:44;25.50;99.90
63771;DHT22;60282;43.862;18.430;2023-08-06T11:40:10;25.50;99.90
63771;DHT22;60282;43.862;18.430;2023-08-06T11:42:39;25.10;99.60
63771;DHT22;60282;43.862;18.430;2023-08-06T11:45:05;24.70;99.90
63771;DHT22;60282;43.862;18.430;2023-08-06T11:47:31;24.50;99.90
63771;DHT22;60282;43.862;18.430;2023-08-06T11:49:57;24.10;99.90
63771;DHT22;60282;43.862;18.430;2023-08-06T11:52:24;23.70;99.90
63771;DHT22;60282;43.862;18.430;2023-08-06T11:55:09;23.40;99.90
63771;DHT22;60282;43.862;18.430;2023-08-06T11:57:44;22.90;99.90
63771;DHT22;60282;43.862;18.430;2023-08-06T12:00:12;23.10;99.90
63771;DHT22;60282;43.862;18.430;2023-08-06T12:02:42;22.70;99.90
63771;DHT22;60282;43.862;18.430;2023-08-06T12:05:12;22.30;99.90
63771;DHT22;60282;43.862;18.430;2023-08-06T12:07:40;22.00;99.90
63771;DHT22;60282;43.862;18.430;2023-08-06T12:10:07;21.90;99.90
63771;DHT22;60282;43.862;18.430;2023-08-06T12:12:36;21.90;99.90
63771;DHT22;60282;43.862;18.430;2023-08-06T12:15:03;21.70;99.90
63771;DHT22;60282;43.862;18.430;2023-08-06T12:17:29;21.50;99.90
63771;DHT22;60282;43.862;18.430;2023-08-06T12:19:55;21.20;99.90
63771;DHT22;60282;43.862;18.430;2023-08-06T12:22:21;21.30;99.90
63771;DHT22;60282;43.862;18.430;2023-08-06T12:27:13;21.20;99.90
63771;DHT22;60282;43.862;18.430;2023-08-06T12:29:44;21.40;99.90
63771;DHT22;60282;43.862;18.430;2023-08-06T12:32:11;21.50;99.90
63771;DHT22;60282;43.862;18.430;2023-08-06T12:34:41;21.60;99.90
63771;DHT22;60282;43.862;18.430;2023-08-06T12:37:08;21.60;99.90
63771;DHT22;60282;43.862;18.430;2023-08-06T12:39:38;21.50;99.90
63771;DHT22;60282;43.862;18.430;2023-08-06T12:42:05;21.30;99.90
63771;DHT22;60282;43.862;18.430;2023-08-06T12:44:31;20.90;99.90
63771;DHT22;60282;43.862;18.430;2023-08-06T12:46:57;20.70;99.90
63771;DHT22;60282;43.862;18.430;2023-08-06T12:49:28;20.60;99.90
63771;DHT22;60282;43.862;18.430;2023-08-06T12:51:56;20.40;99.90
63771;DHT22;60282;43.862;18.430;2023-08-06T12:54:23;20.30;99.90
63771;DHT22;60282;43.862;18.430;2023-08-06T12:56:49;20.10;99.90
63771;DHT22;60282;43.862;18.430;2023-08-06T12:59:17;19.40;99.90
63771;DHT22;60282;43.862;18.430;2023-08-06T13:01:43;19.40;99.90
63771;DHT22;60282;43.862;18.430;2023-08-06T13:04:10;19.00;99.90
63771;DHT22;60282;43.862;18.430;2023-08-06T13:06:36;18.40;99.90
63771;DHT22;60282;43.862;18.430;2023-08-06T13:09:12;18.20;99.90
63771;DHT22;60282;43.862;18.430;2023-08-06T13:11:39;18.20;99.90
63771;DHT22;60282;43.862;18.430;2023-08-06T13:14:07;18.40;99.90
63771;DHT22;60282;43.862;18.430;2023-08-06T13:16:34;18.60;99.90
63771;DHT22;60282;43.862;18.430;2023-08-06T13:19:04;18.80;99.90
63771;DHT22;60282;43.862;18.430;2023-08-06T13:24:06;19.20;99.90
63771;DHT22;60282;43.862;18.430;2023-08-06T13:26:32;19.40;99.90
63771;DHT22;60282;43.862;18.430;2023-08-06T13:28:58;19.60;99.90
63771;DHT22;60282;43.862;18.430;2023-08-06T13:31:25;19.50;99.90
63771;DHT22;60282;43.862;18.430;2023-08-06T13:33:51;19.70;99.90
63771;DHT22;60282;43.862;18.430;2023-08-06T13:36:17;19.90;99.90
63771;DHT22;60282;43.862;18.430;2023-08-06T13:38:43;20.40;99.90
63771;DHT22;60282;43.862;18.430;2023-08-06T13:41:09;20.80;99.90
63771;DHT22;60282;43.862;18.430;2023-08-06T13:43:35;21.30;99.90
63771;DHT22;60282;43.862;18.430;2023-08-06T13:46:01;22.10;99.90
63771;DHT22;60282;43.862;18.430;2023-08-06T13:48:27;22.70;99.90
63771;DHT22;60282;43.862;18.430;2023-08-06T13:50:53;23.30;99.90
63771;DHT22;60282;43.862;18.430;2023-08-06T13:53:19;23.20;99.90
63771;DHT22;60282;43.862;18.430;2023-08-06T13:55:44;23.50;99.90
63771;DHT22;60282;43.862;18.430;2023-08-06T13:58:10;23.40;99.90
63771;DHT22;60282;43.862;18.430;2023-08-06T14:00:36;23.10;99.90
63771;DHT22;60282;43.862;18.430;2023-08-06T14:03:02;22.90;99.90
63771;DHT22;60282;43.862;18.430;2023-08-06T14:05:28;22.40;99.90
63771;DHT22;60282;43.862;18.430;2023-08-06T14:07:54;22.00;99.90
63771;DHT22;60282;43.862;18.430;2023-08-06T14:10:20;21.40;99.90
63771;DHT22;60282;43.862;18.430;2023-08-06T14:12:46;21.10;99.90
63771;DHT22;60282;43.862;18.430;2023-08-06T14:15:12;20.80;99.90
63771;DHT22;60282;43.862;18.430;2023-08-06T14:17:40;20.60;99.90
63771;DHT22;60282;43.862;18.430;2023-08-06T14:20:07;20.50;99.90
63771;DHT22;60282;43.862;18.430;2023-08-06T14:22:37;20.50;99.90
63771;DHT22;60282;43.862;18.430;2023-08-06T14:25:03;20.60;99.90
63771;DHT22;60282;43.862;18.430;2023-08-06T14:27:29;21.40;99.90
63771;DHT22;60282;43.862;18.430;2023-08-06T14:29:55;20.70;99.90
63771;DHT22;60282;43.862;18.430;2023-08-06T14:32:21;20.70;99.90
63771;DHT22;60282;43.862;18.430;2023-08-06T14:34:48;20.60;99.90
63771;DHT22;60282;43.862;18.430;2023-08-06T14:37:13;20.50;99.90
63771;DHT22;60282;43.862;18.430;2023-08-06T14:39:40;20.60;99.90
63771;DHT22;60282;43.862;18.430;2023-08-06T14:42:06;20.70;99.90
63771;DHT22;60282;43.862;18.430;2023-08-06T14:44:32;20.80;99.90
63771;DHT22;60282;43.862;18.430;2023-08-06T14:46:58;17.60;99.90
63771;DHT22;60282;43.862;18.430;2023-08-06T14:49:24;20.50;99.90
63771;DHT22;60282;43.862;18.430;2023-08-06T14:51:50;19.80;99.90
63771;DHT22;60282;43.862;18.430;2023-08-06T14:54:16;19.40;99.90
63771;DHT22;60282;43.862;18.430;2023-08-06T14:56:43;19.30;99.90
63771;DHT22;60282;43.862;18.430;2023-08-06T14:59:09;19.50;99.90
63771;DHT22;60282;43.862;18.430;2023-08-06T15:01:35;19.50;99.90
63771;DHT22;60282;43.862;18.430;2023-08-06T15:04:01;19.60;99.90
63771;DHT22;60282;43.862;18.430;2023-08-06T15:08:53;19.60;99.90
63771;DHT22;60282;43.862;18.430;2023-08-06T15:11:23;19.60;99.90
63771;DHT22;60282;43.862;18.430;2023-08-06T15:13:50;19.70;99.90
63771;DHT22;60282;43.862;18.430;2023-08-06T15:16:16;19.70;99.90
63771;DHT22;60282;43.862;18.430;2023-08-06T15:18:42;19.50;99.90
63771;DHT22;60282;43.862;18.430;2023-08-06T15:21:09;19.40;99.90
63771;DHT22;60282;43.862;18.430;2023-08-06T15:23:35;19.50;99.90
63771;DHT22;60282;43.862;18.430;2023-08-06T15:26:01;20.10;99.90
63771;DHT22;60282;43.862;18.430;2023-08-06T15:28:28;19.70;99.90
63771;DHT22;60282;43.862;18.430;2023-08-06T15:30:55;19.70;99.90
63771;DHT22;60282;43.862;18.430;2023-08-06T15:33:21;19.90;99.90
63771;DHT22;60282;43.862;18.430;2023-08-06T15:35:47;20.30;99.90
63771;DHT22;60282;43.862;18.430;2023-08-06T15:38:13;20.10;99.90
63771;DHT22;60282;43.862;18.430;2023-08-06T15:40:40;20.40;99.90
63771;DHT22;60282;43.862;18.430;2023-08-06T15:43:05;19.80;99.90
63771;DHT22;60282;43.862;18.430;2023-08-06T15:45:32;19.60;99.90